createdAt,value
2019-03-10T00:00:08.756Z,100418.89
2019-03-10T00:05:12.232Z,100426.21
2019-03-10T00:10:15.645Z,100437.88
2019-03-10T00:15:19.110Z,100434.00
2019-03-10T00:20:22.618Z,100432.27
2019-03-10T00:25:26.057Z,100425.78
2019-03-10T00:30:29.681Z,100418.45
2019-03-10T00:35:33.172Z,100413.72
2019-03-10T00:40:54.840Z,100414.55
2019-03-10T00:46:19.197Z,100413.28
2019-03-10T00:51:42.256Z,100407.67
2019-03-10T00:56:45.679Z,100398.16
2019-03-10T01:01:49.179Z,100400.72
2019-03-10T01:06:53.171Z,100391.23
2019-03-10T01:11:56.658Z,100380.45
2019-03-10T01:17:00.158Z,100371.80
2019-03-10T01:22:03.841Z,100362.31
2019-03-10T01:27:08.137Z,100344.59
2019-03-10T01:32:29.757Z,100336.84
2019-03-10T01:37:33.179Z,100332.09
2019-03-10T01:42:36.609Z,100330.34
2019-03-10T01:47:40.037Z,100312.20
2019-03-10T01:52:43.534Z,100301.84
2019-03-10T01:57:46.958Z,100296.68
2019-03-10T02:02:50.377Z,100291.07
2019-03-10T02:07:53.809Z,100296.68
2019-03-10T02:12:57.245Z,100269.47
2019-03-10T02:18:00.756Z,100258.65
2019-03-10T02:23:04.238Z,100252.59
2019-03-10T02:28:07.668Z,100235.73
2019-03-10T02:33:11.101Z,100216.30
2019-03-10T02:38:14.535Z,100200.31
2019-03-10T02:43:17.966Z,100189.92
2019-03-10T02:48:21.400Z,100184.74
2019-03-10T02:53:24.903Z,100175.70
2019-03-10T02:58:28.332Z,100159.27
2019-03-10T03:03:31.744Z,100147.20
2019-03-10T03:08:35.176Z,100153.63
2019-03-10T03:13:38.601Z,100141.13
2019-03-10T03:18:42.036Z,100120.39
2019-03-10T03:23:45.460Z,100112.16
2019-03-10T03:28:48.892Z,100108.27
2019-03-10T03:33:52.344Z,100098.78
2019-03-10T03:39:20.008Z,100101.83
2019-03-10T03:44:23.431Z,100093.17
2019-03-10T03:49:26.938Z,100087.16
2019-03-10T03:54:30.351Z,100071.59
2019-03-10T03:59:33.772Z,100068.16
2019-03-10T04:04:37.213Z,100044.39
2019-03-10T04:09:40.656Z,100033.19
2019-03-10T04:14:44.081Z,100022.02
2019-03-10T04:19:47.508Z,100016.89
2019-03-10T04:24:50.941Z,100005.23
2019-03-10T04:29:54.354Z,99992.32
2019-03-10T04:34:58.509Z,99983.25
2019-03-10T04:40:02.021Z,99985.43
2019-03-10T04:45:07.186Z,99978.07
2019-03-10T04:50:10.849Z,99965.12
2019-03-10T04:55:18.598Z,99951.25
2019-03-10T05:00:22.021Z,99947.40
2019-03-10T05:05:25.434Z,99933.58
2019-03-10T05:10:28.872Z,99918.49
2019-03-10T05:15:32.365Z,99907.33
2019-03-10T05:20:35.778Z,99901.25
2019-03-10T05:25:39.211Z,99893.10
2019-03-10T05:30:42.629Z,99889.19
2019-03-10T05:35:46.162Z,99881.86
2019-03-10T05:40:49.602Z,99861.16
2019-03-10T05:45:53.077Z,99835.69
2019-03-10T05:50:56.515Z,99840.02
2019-03-10T05:55:59.947Z,99823.64
2019-03-10T06:01:03.357Z,99807.27
2019-03-10T06:06:06.788Z,99794.70
2019-03-10T06:11:10.202Z,99788.76
2019-03-10T06:16:13.658Z,99783.97
2019-03-10T06:21:17.083Z,99769.27
2019-03-10T06:26:20.501Z,99746.03
2019-03-10T06:31:23.930Z,99744.31
2019-03-10T06:36:27.387Z,99723.78
2019-03-10T06:41:30.862Z,99706.44
2019-03-10T06:46:34.268Z,99690.88
2019-03-10T06:51:37.701Z,99686.11
2019-03-10T06:56:41.128Z,99686.18
2019-03-10T07:01:44.588Z,99671.02
2019-03-10T07:06:48.067Z,99651.77
2019-03-10T07:11:51.480Z,99637.90
2019-03-10T07:16:54.902Z,99632.67
2019-03-10T07:21:58.365Z,99612.55
2019-03-10T07:27:02.318Z,99604.77
2019-03-10T07:32:16.120Z,99608.95
2019-03-10T07:42:58.067Z,99579.09
2019-03-10T07:48:05.796Z,99554.59
2019-03-10T07:53:13.918Z,99545.19
2019-03-10T07:58:19.012Z,99542.09
2019-03-10T08:08:39.707Z,99524.69
2019-03-10T08:13:44.787Z,99503.97
2019-03-10T08:18:52.420Z,99486.83
2019-03-10T08:23:57.527Z,99481.09
2019-03-10T08:29:14.668Z,99464.89
2019-03-10T08:34:19.768Z,99467.84
2019-03-10T08:39:43.141Z,99447.44
2019-03-10T08:44:48.379Z,99435.88
2019-03-10T08:49:53.432Z,99419.83
2019-03-10T08:54:58.517Z,99403.86
2019-03-10T09:00:03.714Z,99402.21
2019-03-10T09:05:11.667Z,99374.72
2019-03-10T09:10:19.597Z,99373.84
2019-03-10T09:15:41.385Z,99338.94
2019-03-10T09:21:01.429Z,99332.66
2019-03-10T09:26:06.834Z,99324.30
2019-03-10T09:31:11.983Z,99305.87
2019-03-10T09:36:36.260Z,99294.48
2019-03-10T09:41:44.278Z,99284.54
2019-03-10T09:47:08.775Z,99274.50
2019-03-10T09:52:13.977Z,99265.53
2019-03-10T09:57:19.211Z,99254.19
2019-03-10T10:02:29.924Z,99238.39
2019-03-10T10:07:40.779Z,99230.57
2019-03-10T10:12:49.856Z,99224.31
2019-03-10T10:18:03.697Z,99212.49
2019-03-10T10:23:08.787Z,99185.30
2019-03-10T10:33:56.051Z,99145.61
2019-03-10T10:39:01.124Z,99141.92
2019-03-10T10:44:08.866Z,99141.67
2019-03-10T10:49:16.743Z,99137.38
2019-03-10T10:54:21.823Z,99131.66
2019-03-10T10:59:27.053Z,99126.96
2019-03-10T11:04:32.190Z,99129.81
2019-03-10T11:09:43.110Z,99102.09
2019-03-10T11:15:06.515Z,99098.59
2019-03-10T11:20:18.861Z,99102.39
2019-03-10T11:25:24.016Z,99087.00
2019-03-10T11:30:35.100Z,99071.86
2019-03-10T11:35:56.065Z,99065.13
2019-03-10T11:41:04.024Z,99054.75
2019-03-10T11:46:14.484Z,99041.95
2019-03-10T11:51:31.453Z,99032.88
2019-03-10T11:56:52.739Z,99044.70
2019-03-10T12:01:57.871Z,99006.23
2019-03-10T12:07:05.492Z,99008.76
2019-03-10T12:12:09.009Z,98985.09
2019-03-10T12:17:12.466Z,98981.69
2019-03-10T12:22:15.890Z,98966.73
2019-03-10T12:27:19.411Z,98945.71
2019-03-10T12:38:33.322Z,98913.85
2019-03-10T12:43:36.762Z,98905.44
2019-03-10T12:48:46.854Z,98906.66
2019-03-10T12:53:50.279Z,98892.53
2019-03-10T12:58:53.727Z,98868.20
2019-03-10T13:03:59.040Z,98859.79
2019-03-10T13:09:02.392Z,98874.33
2019-03-10T13:14:05.863Z,98863.49
2019-03-10T13:19:09.310Z,98853.16
2019-03-10T13:24:12.760Z,98841.97
2019-03-10T13:29:17.016Z,98848.80
2019-03-10T13:34:20.425Z,98842.52
2019-03-10T13:39:23.868Z,98827.90
2019-03-10T13:44:27.326Z,98825.89
2019-03-10T13:49:30.799Z,98813.44
2019-03-10T13:54:39.208Z,98798.68
2019-03-10T13:59:50.544Z,98792.69
2019-03-10T14:04:58.005Z,98783.37
2019-03-10T14:10:03.100Z,98774.48
2019-03-10T14:15:15.596Z,98774.56
2019-03-10T14:20:21.990Z,98775.24
2019-03-10T14:25:33.018Z,98759.19
2019-03-10T14:30:44.295Z,98765.38
2019-03-10T14:35:47.971Z,98773.48
2019-03-10T14:40:53.731Z,98811.20
2019-03-10T14:45:57.261Z,98817.34
2019-03-10T14:51:02.417Z,98847.88
2019-03-10T14:56:08.710Z,98872.53
2019-03-10T15:01:16.738Z,98882.06
2019-03-10T15:06:20.185Z,98906.46
2019-03-10T15:11:25.441Z,98897.28
2019-03-10T15:16:28.860Z,98913.11
2019-03-10T15:21:45.852Z,98926.25
2019-03-10T15:26:49.275Z,98921.40
2019-03-10T15:31:54.955Z,98913.16
2019-03-10T15:37:00.053Z,98927.59
2019-03-10T15:42:03.215Z,98912.95
2019-03-10T15:47:06.643Z,98926.65
2019-03-10T15:52:10.242Z,98941.77
2019-03-10T15:57:14.697Z,98934.83
2019-03-10T16:02:18.403Z,98941.51
2019-03-10T16:07:21.845Z,98928.31
2019-03-10T16:12:25.255Z,98950.38
2019-03-10T16:17:30.363Z,98962.33
2019-03-10T16:22:34.826Z,98969.61
2019-03-10T16:27:41.250Z,99008.73
2019-03-10T16:32:44.999Z,99068.66
2019-03-10T16:37:50.193Z,99084.13
2019-03-10T16:42:53.928Z,99162.73
2019-03-10T16:47:57.918Z,99239.80
2019-03-10T16:53:01.561Z,99307.59
2019-03-10T16:58:05.062Z,99431.81
2019-03-10T17:03:08.608Z,99486.22
2019-03-10T17:08:12.059Z,99567.72
2019-03-10T17:13:15.559Z,99621.89
2019-03-10T17:18:19.026Z,99691.44
2019-03-10T17:23:22.453Z,99742.91
2019-03-10T17:28:25.890Z,99775.45
2019-03-10T17:33:29.339Z,99816.64
2019-03-10T17:38:32.798Z,99848.32
2019-03-10T17:43:36.236Z,99875.89
2019-03-10T17:48:39.732Z,99898.98
2019-03-10T17:53:43.174Z,99918.30
2019-03-10T17:58:46.683Z,99947.03
2019-03-10T18:03:51.755Z,99965.81
2019-03-10T18:08:55.205Z,99990.48
2019-03-10T18:13:58.714Z,100002.20
2019-03-10T18:19:02.146Z,100019.98
2019-03-10T18:24:05.694Z,100036.34
2019-03-10T18:29:09.138Z,100051.03
2019-03-10T18:34:12.636Z,100062.47
2019-03-10T18:39:16.251Z,100063.48
2019-03-10T18:44:19.672Z,100076.36
2019-03-10T18:49:23.265Z,100076.89
2019-03-10T18:54:26.749Z,100079.04
2019-03-10T18:59:30.197Z,100091.64
2019-03-10T19:04:33.657Z,100098.66
2019-03-10T19:09:37.125Z,100091.74
2019-03-10T19:14:40.582Z,100098.74
2019-03-10T19:19:44.011Z,100115.06
2019-03-10T19:24:47.477Z,100118.52
2019-03-10T19:29:50.956Z,100138.32
2019-03-10T19:34:55.636Z,100151.69
2019-03-10T19:39:59.029Z,100165.44
2019-03-10T19:45:04.081Z,100177.42
2019-03-10T19:50:18.618Z,100178.61
2019-03-10T19:55:22.090Z,100173.45
2019-03-10T20:00:25.545Z,100167.15
2019-03-10T20:05:29.771Z,100180.43
2019-03-10T20:10:33.332Z,100170.68
2019-03-10T20:15:36.796Z,100206.83
2019-03-10T20:20:40.242Z,100222.78
2019-03-10T20:25:43.809Z,100233.11
2019-03-10T20:30:47.276Z,100218.92
2019-03-10T20:35:50.692Z,100237.06
2019-03-10T20:40:54.133Z,100252.88
2019-03-10T20:45:57.562Z,100256.84
2019-03-10T20:56:00.551Z,100252.88
2019-03-10T21:01:25.557Z,100245.95
2019-03-10T21:12:39.437Z,100272.92
2019-03-10T21:17:49.648Z,100286.62
2019-03-10T21:22:57.686Z,100296.14
2019-03-10T21:28:51.502Z,100297.37
2019-03-10T21:50:49.857Z,100311.91
2019-03-10T22:01:47.617Z,100333.05
2019-03-10T22:18:49.007Z,100339.05
2019-03-10T22:23:59.370Z,100338.14
2019-03-10T22:34:47.692Z,100369.20
2019-03-10T22:39:52.432Z,100389.32
2019-03-10T22:44:56.715Z,100379.08
2019-03-10T22:50:02.695Z,100377.43
2019-03-10T22:55:28.404Z,100370.98
2019-03-10T23:00:39.493Z,100367.50
2019-03-10T23:05:42.960Z,100364.26
2019-03-10T23:10:46.346Z,100373.80
2019-03-10T23:16:01.147Z,100386.69
2019-03-10T23:21:04.659Z,100373.66
2019-03-10T23:26:08.083Z,100358.05
2019-03-10T23:31:11.566Z,100360.63
2019-03-10T23:36:15.098Z,100345.16
2019-03-10T23:41:18.583Z,100344.73
2019-03-10T23:46:22.009Z,100339.14
2019-03-10T23:51:25.437Z,100336.91
2019-03-10T23:56:28.871Z,100320.53
